Archives de nos stations météo

Station météo de Saint-Firmin-des-Bois

Altitude de la station : 148 m






Données météorologiques pour le 06/02/2023
Date
Heure
Températures Humidité Point de rosée Vitesse
du vent
Direction Rafales Windchill Pression Pluviométrie
Cumul
Date
Heure
Températures Humidité Point de rosée Vitesse
du vent
Direction Rafales Windchill Pression Pluviométrie
Cumul
06/02/2023 23:490.3 °C90 %-1.1 °C2 km/hNE8 km/h0.0 1035 hPa-
06/02/2023 23:450.4 °C89 %-1.1 °C3 km/hE27 km/h-0.6 1035 hPa-
06/02/2023 23:330.6 °C89 %-1.1 °C5 km/hNNO6 km/h-0.6 1036 hPa-
06/02/2023 23:300.7 °C89 %-1.1 °C2 km/hENE27 km/h0.0 1036 hPa-
06/02/2023 23:170.8 °C89 %-0.6 °C3 km/hENE6 km/h0.0 1036 hPa-
06/02/2023 23:150.9 °C89 %-0.6 °C5 km/hENE27 km/h0.0 1036 hPa-
06/02/2023 23:020.9 °C89 %-0.6 °C3 km/hNE8 km/h0.0 1036 hPa-
06/02/2023 23:000.9 °C89 %-0.6 °C3 km/hENE27 km/h0.0 1036 hPa-
06/02/2023 22:470.9 °C89 %-0.6 °C3 km/hNE14 km/h0.0 1036 hPa-
06/02/2023 22:451.0 °C88 %-0.6 °C2 km/hENE27 km/h0.6 1036 hPa-
06/02/2023 22:321.2 °C88 %-0.6 °C2 km/hENE6 km/h0.6 1036 hPa-
06/02/2023 22:301.2 °C88 %-0.6 °C5 km/hNNE27 km/h0.0 1036 hPa-
06/02/2023 22:171.3 °C88 %-0.6 °C2 km/hE8 km/h0.6 1036 hPa-
06/02/2023 22:151.3 °C88 %-0.6 °C3 km/hE27 km/h0.0 1036 hPa-
06/02/2023 22:021.5 °C87 %-0.6 °C3 km/hNE6 km/h0.6 1036 hPa-
06/02/2023 22:001.5 °C87 %-0.6 °C3 km/hNE27 km/h0.6 1036 hPa-
06/02/2023 21:471.8 °C86 %-0.6 °C2 km/hE10 km/h1.1 1036 hPa-
06/02/2023 21:451.8 °C86 %-0.6 °C3 km/hNNE27 km/h0.6 1036 hPa-
06/02/2023 21:322.1 °C86 %0.0 °C2 km/hNNE13 km/h1.7 1036 hPa-
06/02/2023 21:302.2 °C85 %0.0 °C3 km/hNNE27 km/h1.1 1036 hPa-
06/02/2023 21:172.4 °C85 %0.0 °C10 km/hENE10 km/h-0.6 1036 hPa-
06/02/2023 21:152.4 °C85 %0.0 °C3 km/hENE27 km/h1.1 1037 hPa-
06/02/2023 21:022.8 °C84 %0.6 °C2 km/hENE8 km/h2.2 1037 hPa-
06/02/2023 21:002.8 °C84 %0.6 °C3 km/hNE27 km/h1.7 1037 hPa-
06/02/2023 20:472.8 °C84 %0.6 °C6 km/hNE13 km/h1.1 1037 hPa-
06/02/2023 20:452.8 °C84 %0.6 °C2 km/hNNE27 km/h2.2 1037 hPa-
06/02/2023 20:322.9 °C83 %0.6 °C6 km/hNNE13 km/h1.1 1037 hPa-
06/02/2023 20:303.0 °C83 %0.6 °C3 km/hESE27 km/h1.7 1037 hPa-
06/02/2023 20:173.3 °C82 %0.6 °C3 km/hNNE16 km/h2.2 1037 hPa-
06/02/2023 20:153.3 °C82 %0.6 °C5 km/hNE27 km/h2.2 1037 hPa-
06/02/2023 20:023.6 °C81 %0.6 °C3 km/hENE8 km/h2.8 1037 hPa-
06/02/2023 20:003.7 °C81 %0.6 °C6 km/hE27 km/h2.2 1037 hPa-
06/02/2023 19:493.9 °C81 %1.1 °C3 km/hE19 km/h2.8 1037 hPa-
06/02/2023 19:453.9 °C81 %1.1 °C8 km/hNNE27 km/h1.7 1037 hPa-
06/02/2023 19:343.9 °C81 %1.1 °C2 km/hENE23 km/h3.3 1037 hPa-
06/02/2023 19:303.9 °C82 %1.1 °C5 km/hNE27 km/h2.8 1037 hPa-
06/02/2023 19:193.9 °C82 %1.1 °C5 km/hENE18 km/h2.8 1037 hPa-
06/02/2023 19:153.9 °C82 %1.1 °C6 km/hE27 km/h2.2 1037 hPa-
06/02/2023 19:044.0 °C82 %1.1 °C5 km/hE11 km/h2.8 1037 hPa-
06/02/2023 19:004.0 °C82 %1.1 °C10 km/hESE27 km/h1.1 1038 hPa-
06/02/2023 18:494.1 °C82 %1.1 °C2 km/hESE13 km/h3.3 1038 hPa-
06/02/2023 18:454.2 °C82 %1.1 °C-E27 km/h4.4 1038 hPa-
06/02/2023 18:344.3 °C81 %1.1 °C6 km/hNE14 km/h2.8 1038 hPa-
06/02/2023 18:304.4 °C81 %1.7 °C-ENE27 km/h4.4 1038 hPa-
06/02/2023 18:174.7 °C81 %1.7 °C3 km/hENE13 km/h3.3 1038 hPa-
06/02/2023 18:154.7 °C80 %1.7 °C11 km/hESE27 km/h2.2 1038 hPa-
06/02/2023 18:024.9 °C80 %1.7 °C10 km/hE11 km/h2.8 1037 hPa-
06/02/2023 18:004.9 °C80 %1.7 °C6 km/hNE27 km/h3.9 1037 hPa-
06/02/2023 17:475.2 °C78 %1.7 °C2 km/hENE8 km/h5.0 1037 hPa-
06/02/2023 17:455.3 °C78 %1.7 °C2 km/hENE27 km/h5.6 1037 hPa-
06/02/2023 17:325.7 °C78 %2.2 °C5 km/hNE14 km/h5.0 1037 hPa-
06/02/2023 17:305.7 °C78 %2.2 °C3 km/hE27 km/h5.0 1037 hPa-
06/02/2023 17:175.9 °C77 %2.2 °C6 km/hNE23 km/h5.0 1037 hPa-
06/02/2023 17:155.9 °C77 %2.2 °C8 km/hN27 km/h4.4 1037 hPa-
06/02/2023 17:026.1 °C76 %2.2 °C2 km/hE16 km/h6.1 1037 hPa-
06/02/2023 17:006.1 °C76 %2.2 °C2 km/hNE27 km/h6.1 1037 hPa-
06/02/2023 16:476.3 °C76 %2.2 °C16 km/hE23 km/h2.8 1037 hPa-
06/02/2023 16:456.3 °C76 %2.2 °C5 km/hSE27 km/h5.6 1037 hPa-
06/02/2023 16:326.4 °C76 %2.8 °C3 km/hE18 km/h6.1 1037 hPa-
06/02/2023 16:306.5 °C76 %2.8 °C3 km/hE27 km/h6.1 1037 hPa-
06/02/2023 16:176.8 °C76 %2.8 °C6 km/hN16 km/h5.6 1037 hPa-
06/02/2023 16:156.8 °C76 %2.8 °C3 km/hE27 km/h6.1 1037 hPa-
06/02/2023 16:027.1 °C75 %2.8 °C3 km/hNE16 km/h6.7 1037 hPa-
06/02/2023 16:007.1 °C75 %2.8 °C5 km/hE27 km/h6.7 1037 hPa-
06/02/2023 15:477.3 °C75 %3.3 °C5 km/hE19 km/h6.7 1037 hPa-
06/02/2023 15:457.3 °C75 %3.3 °C5 km/hESE27 km/h6.7 1037 hPa-
06/02/2023 15:317.4 °C75 %3.3 °C5 km/hN21 km/h6.7 1037 hPa-
06/02/2023 15:297.5 °C74 %3.3 °C5 km/hN27 km/h7.2 1037 hPa-
06/02/2023 15:167.7 °C75 %3.3 °C18 km/hNE18 km/h4.4 1037 hPa-
06/02/2023 15:147.7 °C75 %3.3 °C2 km/hNE27 km/h7.8 1037 hPa-
06/02/2023 15:017.7 °C74 %3.3 °C2 km/hN27 km/h7.8 1037 hPa-
06/02/2023 14:597.7 °C72 %2.8 °C3 km/hNNE27 km/h7.2 1037 hPa-
06/02/2023 14:467.9 °C75 %3.9 °C18 km/hNE19 km/h4.4 1038 hPa-
06/02/2023 14:447.8 °C76 %3.9 °C8 km/hENE26 km/h6.1 1038 hPa-
06/02/2023 14:317.5 °C75 %3.3 °C13 km/hSE21 km/h5.0 1038 hPa-
06/02/2023 14:297.6 °C75 %3.3 °C8 km/hNE26 km/h6.1 1038 hPa-
06/02/2023 14:167.3 °C75 %3.3 °C8 km/hENE18 km/h5.6 1038 hPa-
06/02/2023 14:147.4 °C75 %3.3 °C13 km/hENE26 km/h4.4 1038 hPa-
06/02/2023 14:018.0 °C76 %3.9 °C13 km/hE18 km/h5.0 1038 hPa-
06/02/2023 13:597.9 °C76 %3.9 °C6 km/hNO26 km/h6.7 1038 hPa-
06/02/2023 13:467.1 °C76 %3.3 °C6 km/hNE23 km/h6.1 1038 hPa-
06/02/2023 13:447.2 °C76 %3.3 °C16 km/hESE26 km/h3.9 1038 hPa-
06/02/2023 13:317.8 °C76 %3.9 °C14 km/hESE19 km/h5.0 1038 hPa-
06/02/2023 13:297.8 °C75 %3.9 °C6 km/hNE26 km/h6.7 1038 hPa-
06/02/2023 13:167.5 °C78 %3.9 °C2 km/hENE21 km/h7.8 1038 hPa-
06/02/2023 13:147.4 °C77 %3.9 °C10 km/hENE26 km/h5.0 1039 hPa-
06/02/2023 13:026.9 °C79 %3.3 °C6 km/hENE14 km/h6.1 1039 hPa-
06/02/2023 13:006.8 °C79 %3.3 °C6 km/hENE26 km/h5.6 1039 hPa-
06/02/2023 12:476.7 °C78 %3.3 °C13 km/hENE21 km/h3.9 1039 hPa-
06/02/2023 12:456.7 °C78 %3.3 °C8 km/hE26 km/h5.0 1039 hPa-
06/02/2023 12:326.9 °C79 %3.3 °C13 km/hENE16 km/h4.4 1039 hPa-
06/02/2023 12:306.9 °C79 %3.3 °C6 km/hENE26 km/h6.1 1039 hPa-
06/02/2023 12:176.7 °C80 %3.3 °C8 km/hE19 km/h5.0 1039 hPa-
06/02/2023 12:156.6 °C80 %3.3 °C16 km/hE26 km/h3.3 1039 hPa-
06/02/2023 12:026.2 °C82 %3.3 °C5 km/hE11 km/h5.6 1039 hPa-
06/02/2023 12:006.1 °C81 %3.3 °C5 km/hNE26 km/h5.6 1039 hPa-
06/02/2023 11:475.9 °C82 %3.3 °C14 km/hE21 km/h2.8 1039 hPa-
06/02/2023 11:455.9 °C82 %3.3 °C8 km/hNE24 km/h4.4 1039 hPa-
06/02/2023 11:325.4 °C84 %2.8 °C6 km/hENE19 km/h4.4 1039 hPa-
06/02/2023 11:305.3 °C84 %2.8 °C5 km/hNNE24 km/h5.0 1039 hPa-
06/02/2023 11:175.1 °C84 %2.8 °C6 km/hNE24 km/h3.9 1039 hPa-
06/02/2023 11:155.1 °C85 %2.8 °C13 km/hE24 km/h1.7 1039 hPa-
06/02/2023 11:024.6 °C86 %2.8 °C3 km/hS19 km/h3.3 1039 hPa-
06/02/2023 11:004.5 °C86 %2.2 °C13 km/hE23 km/h1.7 1039 hPa-
06/02/2023 10:474.2 °C88 %2.2 °C3 km/hNE18 km/h3.3 1039 hPa-
06/02/2023 10:454.1 °C89 %2.2 °C18 km/hENE23 km/h0.0 1039 hPa-
06/02/2023 10:323.7 °C91 %2.2 °C6 km/hN14 km/h2.2 1039 hPa-
06/02/2023 10:303.6 °C91 %2.2 °C6 km/hNNE23 km/h1.7 1039 hPa-
06/02/2023 10:172.9 °C92 %1.7 °C3 km/hNE19 km/h1.7 1039 hPa-
06/02/2023 10:152.8 °C92 %1.7 °C3 km/hNE23 km/h1.7 1039 hPa-
06/02/2023 10:022.2 °C94 %1.1 °C5 km/hE19 km/h1.1 1039 hPa-
06/02/2023 10:002.1 °C94 %1.1 °C5 km/hENE23 km/h1.1 1039 hPa-
06/02/2023 09:471.4 °C95 %0.6 °C8 km/hE13 km/h-1.1 1040 hPa-
06/02/2023 09:451.3 °C95 %0.6 °C10 km/hE23 km/h-1.7 1040 hPa-
06/02/2023 09:320.9 °C95 %0.0 °C8 km/hE13 km/h-1.7 1040 hPa-
06/02/2023 09:300.9 °C96 %0.6 °C3 km/hENE23 km/h0.0 1040 hPa-
06/02/2023 09:170.7 °C96 %0.0 °C2 km/hNNO10 km/h0.0 1040 hPa-
06/02/2023 09:150.7 °C96 %0.0 °C3 km/hNNO23 km/h-0.6 1040 hPa-
06/02/2023 09:020.6 °C96 %0.0 °C2 km/hNNE8 km/h0.0 1040 hPa-
06/02/2023 09:000.5 °C96 %0.0 °C3 km/hNNE23 km/h-0.6 1040 hPa-
06/02/2023 08:470.4 °C96 %0.0 °C----1040 hPa-
06/02/2023 08:450.4 °C96 %0.0 °C----1040 hPa-
06/02/2023 08:320.4 °C95 %0.0 °C----1040 hPa-
06/02/2023 08:300.3 °C95 %-0.6 °C----1040 hPa-
06/02/2023 08:160.4 °C95 %0.0 °C----1040 hPa-
06/02/2023 08:130.4 °C95 %0.0 °C----1040 hPa-
06/02/2023 08:010.4 °C95 %0.0 °C----1040 hPa-
06/02/2023 07:590.4 °C95 %0.0 °C----1040 hPa-
06/02/2023 07:460.4 °C95 %0.0 °C----1040 hPa-
06/02/2023 07:440.4 °C95 %0.0 °C----1040 hPa-
06/02/2023 07:320.5 °C95 %0.0 °C----1040 hPa-
06/02/2023 07:300.5 °C95 %0.0 °C----1040 hPa-
06/02/2023 07:160.6 °C94 %0.0 °C----1040 hPa-
06/02/2023 07:150.6 °C94 %0.0 °C----1040 hPa-
06/02/2023 07:020.9 °C94 %0.0 °C----1040 hPa-
06/02/2023 06:590.9 °C94 %0.0 °C----1040 hPa-
06/02/2023 06:471.2 °C94 %0.6 °C----1040 hPa-
06/02/2023 06:451.3 °C94 %0.6 °C----1039 hPa-
06/02/2023 06:321.4 °C94 %0.6 °C----1039 hPa-
06/02/2023 06:291.4 °C94 %0.6 °C----1040 hPa-
06/02/2023 06:171.3 °C95 %0.6 °C----1040 hPa-
06/02/2023 06:141.3 °C95 %0.6 °C----1040 hPa-
06/02/2023 06:021.2 °C95 %0.6 °C----1040 hPa-
06/02/2023 05:591.1 °C94 %0.6 °C----1040 hPa-
06/02/2023 05:471.1 °C94 %0.6 °C----1040 hPa-
06/02/2023 05:441.2 °C94 %0.6 °C----1039 hPa-
06/02/2023 05:321.2 °C94 %0.6 °C----1039 hPa-
06/02/2023 05:291.2 °C94 %0.6 °C----1040 hPa-
06/02/2023 05:171.3 °C94 %0.6 °C----1040 hPa-
06/02/2023 05:141.3 °C94 %0.6 °C----1040 hPa-
06/02/2023 05:021.5 °C94 %0.6 °C----1040 hPa-
06/02/2023 04:591.5 °C94 %0.6 °C----1040 hPa-
06/02/2023 04:471.6 °C94 %0.6 °C----1040 hPa-
06/02/2023 04:441.6 °C94 %0.6 °C----1040 hPa-
06/02/2023 04:321.6 °C94 %0.6 °C----1040 hPa-
06/02/2023 04:301.6 °C94 %0.6 °C----1040 hPa-
06/02/2023 04:181.7 °C94 %1.1 °C----1040 hPa-
06/02/2023 04:151.7 °C94 %1.1 °C----1040 hPa-
06/02/2023 04:021.8 °C94 %1.1 °C----1040 hPa-
06/02/2023 04:001.9 °C94 %1.1 °C----1040 hPa-
06/02/2023 03:461.9 °C94 %1.1 °C----1040 hPa-
06/02/2023 03:441.9 °C94 %1.1 °C----1040 hPa-
06/02/2023 03:311.9 °C95 %1.1 °C----1041 hPa-
06/02/2023 03:291.9 °C95 %1.1 °C----1041 hPa-
06/02/2023 03:171.8 °C95 %1.1 °C----1041 hPa-
06/02/2023 03:141.7 °C95 %1.1 °C----1041 hPa-
06/02/2023 03:021.6 °C95 %1.1 °C6 km/hENE10 km/h0.0 1041 hPa-
06/02/2023 02:591.6 °C95 %1.1 °C11 km/hESE23 km/h-1.1 1041 hPa-
06/02/2023 02:471.4 °C95 %0.6 °C3 km/hNNO8 km/h0.6 1041 hPa-
06/02/2023 02:441.3 °C95 %0.6 °C5 km/hENE23 km/h0.0 1041 hPa-
06/02/2023 02:321.2 °C94 %0.6 °C3 km/hENE11 km/h0.0 1041 hPa-
06/02/2023 02:281.2 °C94 %0.6 °C5 km/hENE23 km/h0.0 1041 hPa-
06/02/2023 02:171.2 °C93 %0.0 °C2 km/hENE6 km/h0.6 1041 hPa-
06/02/2023 02:141.2 °C93 %0.0 °C3 km/hNNE23 km/h0.0 1041 hPa-
06/02/2023 02:011.4 °C92 %0.6 °C2 km/hENE6 km/h1.1 1041 hPa-
06/02/2023 01:591.5 °C91 %0.0 °C2 km/hNE23 km/h1.1 1041 hPa-
06/02/2023 01:461.8 °C91 %0.6 °C2 km/hNE6 km/h1.1 1041 hPa-
06/02/2023 01:441.9 °C91 %0.6 °C3 km/hE23 km/h1.1 1041 hPa-
06/02/2023 01:312.2 °C91 %1.1 °C3 km/hE11 km/h1.1 1041 hPa-
06/02/2023 01:292.3 °C91 %1.1 °C2 km/hE23 km/h1.7 1041 hPa-
06/02/2023 01:162.4 °C90 %1.1 °C-E6 km/h2.2 1041 hPa-
06/02/2023 01:142.6 °C90 %1.1 °C2 km/hNE23 km/h2.2 1041 hPa-
06/02/2023 01:012.7 °C90 %1.1 °C3 km/hNE5 km/h1.7 1041 hPa-
06/02/2023 00:592.7 °C90 %1.1 °C-ESE23 km/h2.8 1041 hPa-
06/02/2023 00:472.8 °C90 %1.7 °C5 km/hESE10 km/h1.7 1041 hPa-
06/02/2023 00:442.8 °C90 %1.7 °C3 km/hENE23 km/h1.7 1041 hPa-
06/02/2023 00:312.9 °C90 %1.7 °C2 km/hSE16 km/h2.2 1041 hPa-
06/02/2023 00:292.9 °C90 %1.7 °C5 km/hNNE23 km/h1.7 1041 hPa-
06/02/2023 00:162.9 °C90 %1.7 °C3 km/hNE19 km/h1.7 1041 hPa-
06/02/2023 00:143.0 °C90 %1.7 °C10 km/hN23 km/h0.0 1041 hPa-
06/02/2023 00:022.9 °C90 %1.7 °C5 km/hNNE23 km/h1.7 1041 hPa-


Minima :

Température : 0.3 °C
Humidité : 72 %
Point de rosée : -1.1 °C
Vent moyen : 2 km/h
Windchill : -1.7
Pression atm. : 1035 hPa
Maxima :

Température : 8.0 °C
Humidité : 96 %
Point de rosée : 3.9 °C
Vent moyen : 18 km/h
Windchill : 7.8
Pression atm. : 1041 hPa
Rafales max : 27 km/h
Cumul de pluie sur 24H : 0 mm

Saint-Firmin-des-Bois est une commune du département Loiret (45).
La station météorologique du réseau de l'association la plus proche de Saint-Firmin-des-Bois est celle de Cudot


Descriptif du réseau de station de l'association Météo Centre (R.S.M.C)

Carte de la région Centre - Val de Loire

Carte de la région Centre - Val de Loire couvert par notre réseau météorologique

L'association météo centre et ses bénévoles développent et gère ce réseau. Il regroupe des stations météorologiques semi-professionnelles de marque Davis Instruments et est notamment composé de Davis Vantage Pro 2 mais aussi de Davis Vantage Vue.

Ce sont des passionnés de météorologie qui, avec ou sans l'aide de l'association, implantent ce type de matériel depuis la création de notre organisation en 2011.

Les données de chaque station de réseau sont hébergées sur le serveur de l'association. Elles sont ensuite mises gratuitement à votre disposition sur cette page, mais également sur la carte d'observation météorologique du Centre - Val de Loire.

Certaines stations sont installées en dehors de notre région. Elles permettent d'avoir une vision plus large des conditions météorologiques autour de notre territoire, retrouvez ici la carte de notre réseau de station Météo Centre (R.S.M.C).

Notre réseau surveille donc en permanence les conditions météo dans la région Centre - Val de Loire. Si vous possédez du matériel météo de marque Davis, faite comme plus de 60 autres passionnés, contactez nous pour nous rejoindre.


Contenu des archives météo de notre réseau

Chaque station météo du réseau émet les données suivantes toutes les 15 à 30 minutes :

Station météorologique Davis Vantage Pro 2

Exemple de station météorologique du réseau de station Météo Centre

  • la température extérieure
  • l'humidité
  • le point de rosée
  • la vitesse du vent
  • la direction du vent
  • les rafales
  • le windchill (refroidissement éolien)
  • la pression
  • le cumul de pluie

Nous archivons ces informations météorologiques et nous les mettons gratuitement à disposition du grand public. Nous les partageons également avec des professionnels, des collectivités voire des établissements publics quand ils en expriment le besoin.

Toutefois, les archives des stations ne sont pas toutes aussi anciennes puisque les installations se déroulent année après année. Retrouvez ces archives météo pour la région Centre - Val de Loire en cliquant ici.

Merci à tous les propriétaires de stations météorologiques de partager leurs données mais aussi de les rendre accessibles au plus grand nombre.